x

West Erie - 16 Nm Nw Of Lorain, Oh (45005) Weather Station

3:20am - Thu 23rd Nov 2017 All times are CST. -6 hours from GMT.

  • Wind
    16mph, 18mph gusts
  • Sea Temp 44°f
  • Air Temp 34°f
  • Sea Pressure 1022.7mb
  • West Erie - 16 Nm Nw Of Lorain, Oh
  • West Erie - 16 Nm Nw Of Lorain, Oh

More Historic Weather Station data

Upgrade to MSW Pro to gain access to the past 30 days of data for over 8000 Wavebouys and Weather Stations around the globe.

Join

Comparision Forecast

View Surf forecast
   
Thu 11/23 3:20am  -   -   -  16 18 mph 1022.7mb 44f 34f
3:10am  -   -   -  16 20 mph 1022.8mb 44f 34f
3:00am  -   -   -  16 18 mph 1023mb 44f 34f
2:50am 1.6ft 3s 3s 13 18 mph 1023.2mb 44f 34f
2:40am  -   -   -  13 18 mph 1023.4mb 44f 34f
2:30am  -   -   -  16 20 mph 1023.5mb 44f 34f
2:20am  -   -   -  13 18 mph 1023.6mb 44f 34f
2:10am  -   -   -  13 18 mph 1023.5mb 44f 34f
2:00am  -   -   -  16 18 mph 1023.5mb 45f 34f
1:50am 2ft  -  3s 16 18 mph - 45f -
1:40am  -   -   -  16 20 mph 1023.6mb 45f 34f
1:30am  -   -   -  16 20 mph 1023.6mb 45f 34f
1:20am  -   -   -  16 20 mph 1023.5mb 44f 34f
1:10am  -   -   -  16 20 mph 1023.6mb 44f 34f
1:00am  -   -   -  16 20 mph 1023.6mb 45f 34f
12:50am 2ft 3s 3s 16 20 mph 1023.5mb 45f 34f
12:40am 2ft  -  3s 16 20 mph 1023.6mb 45f 34f
12:30am  -   -   -  16 20 mph 1023.6mb 45f 34f
12:20am  -   -   -  16 20 mph 1023.7mb 45f 34f
12:10am  -   -   -  16 20 mph 1023.7mb 45f 34f
12:00am  -   -   -  16 20 mph 1023.9mb 45f 34f
Wed 11/22 11:50pm 2ft 3s 3s 16 20 mph 1023.9mb 45f 34f
11:40pm  -   -   -  16 18 mph 1024mb 45f 34f
11:30pm  -   -   -  13 20 mph 1024mb 45f 34f
11:20pm  -   -   -  13 18 mph 1024mb 45f 34f
11:10pm  -   -   -  16 20 mph 1024.1mb 45f 34f
11:00pm  -   -   -  16 18 mph 1024.3mb 45f 34f
10:50pm 1.6ft 3s 3s 16 20 mph 1024.3mb 45f 34f
10:40pm 1.6ft  -  3s 16 20 mph 1024.2mb 45f 34f
10:30pm  -   -   -  16 18 mph 1024.4mb 45f 34f
10:20pm  -   -   -  13 18 mph 1024.6mb 45f 34f
10:10pm  -   -   -  13 18 mph 1024.7mb 45f 34f
10:00pm  -   -   -  13 18 mph 1024.7mb 45f 34f
9:50pm 0.3ft  -  3s 13 18 mph 1024.7mb 45f 35f
9:40pm 0.3ft  -  3s 11 18 mph 1024.7mb 45f 34f
9:30pm  -   -   -  13 18 mph 1024.7mb 45f 34f
9:20pm  -   -   -  11 16 mph 1024.8mb 45f 34f
9:10pm  -   -   -  4 13 mph 1024.8mb 45f 35f
9:00pm  -   -   -  4 7 mph 1024.8mb 45f 35f
8:50pm 0.3ft  -  3s 4 7 mph 1024.8mb 45f 34f
8:40pm 0.3ft  -  3s 2 7 mph 1024.8mb 45f 34f
8:30pm  -   -   -  2 4 mph 1024.9mb 45f 34f
8:20pm  -   -   -  2 4 mph 1024.8mb 45f 34f
8:10pm  -   -   -  2 4 mph 1024.9mb 45f 34f
8:00pm  -   -   -  2 7 mph 1024.9mb 45f 34f
7:50pm 0.7ft  -  3s 2 7 mph 1024.9mb 45f 34f
7:40pm 0.7ft  -  3s 2 4 mph 1024.9mb 45f 34f
7:30pm 0.7ft  -  3s 2 7 mph 1025.2mb 45f 34f
7:20pm  -   -   -  4 7 mph 1025.4mb 45f 34f
7:10pm  -   -   -  4 7 mph 1025.5mb 45f 34f
7:00pm  -   -   -  4 7 mph 1025.6mb 45f 34f
6:50pm 0.7ft  -  3s 7 9 mph 1025.6mb 45f 34f
6:40pm 0.7ft  -  3s 7 11 mph 1025.7mb 45f 34f
6:30pm  -   -   -  4 9 mph 1025.9mb 45f 34f
6:20pm  -   -   -  4 9 mph 1026.1mb 45f 34f
6:10pm  -   -   -  4 7 mph 1026.2mb 45f 34f
6:00pm  -   -   -  7 11 mph 1026.3mb 45f 34f
5:50pm 1ft 3s 3s 7 11 mph 1026.4mb 45f 34f
5:40pm 1ft  -  3s 9 13 mph 1026.5mb 45f 34f
5:30pm  -   -   -  9 13 mph 1026.6mb 45f 34f
5:20pm  -   -   -  9 16 mph 1026.5mb 45f 34f
5:10pm  -   -   -  9 13 mph 1026.4mb 45f 34f
5:00pm  -   -   -  9 16 mph 1026.4mb 45f 34f
4:50pm 1ft 3s 3s 11 18 mph 1026.4mb 45f 34f
4:40pm 1ft  -  3s 13 16 mph 1026.4mb 45f 34f
4:30pm  -   -   -  11 16 mph 1026.4mb 45f 34f
4:20pm  -   -   -  11 16 mph 1026.3mb 45f 34f
4:10pm  -   -   -  9 13 mph 1026.3mb 45f 34f
4:00pm  -   -   -  9 16 mph 1026.2mb 45f 34f
3:50pm 1ft 3s 3s 11 16 mph 1026.2mb - 34f
3:40pm 1ft  -  3s 11 16 mph 1026.3mb 45f 34f
3:30pm  -   -   -  9 18 mph 1026.3mb 45f 33f
3:20pm  -   -   -  11 16 mph 1026.4mb 45f 34f
3:10pm  -   -   -  11 18 mph 1026.3mb 45f 33f
3:00pm  -   -   -  9 13 mph 1026.2mb 45f 33f
2:50pm 1ft 4s 3s 11 18 mph 1026.1mb 45f 33f
2:40pm 1ft  -  3s 11 18 mph 1026mb 45f 33f
2:30pm  -   -   -  9 16 mph 1025.9mb 45f 33f
2:20pm  -   -   -  7 11 mph 1025.8mb 45f 33f
2:10pm  -   -   -  11 13 mph 1025.8mb 45f 33f
2:00pm  -   -   -  9 13 mph 1025.7mb 45f 33f
1:50pm 1.3ft 3s 3s 9 16 mph 1025.6mb 45f 33f
1:40pm 1.3ft  -  3s 11 13 mph 1025.5mb 45f 33f
1:30pm  -   -   -  9 13 mph 1025.6mb 45f 33f
1:20pm  -   -   -  11 13 mph 1025.7mb 45f 33f
1:10pm  -   -   -  9 13 mph 1025.7mb 45f 33f
1:00pm  -   -   -  9 13 mph 1025.7mb 45f 33f
12:50pm 1.3ft 3s 3s 9 11 mph 1025.8mb 45f 33f
12:40pm 1.3ft  -  3s 9 16 mph 1025.7mb 45f 33f
12:30pm  -   -   -  9 13 mph 1025.8mb 45f 33f
12:20pm  -   -   -  9 13 mph 1025.8mb 45f 32f
12:10pm  -   -   -  11 18 mph 1026mb 45f 33f
12:00pm  -   -   -  11 16 mph 1026mb 45f 33f
11:50am 1.6ft 3s 3s 11 16 mph 1026mb 45f 33f
11:40am 1.6ft  -  3s 11 16 mph 1025.9mb 45f 33f
11:30am  -   -   -  13 18 mph 1026mb 45f 33f
11:20am  -   -   -  13 18 mph 1026mb 45f 33f
11:10am  -   -   -  11 16 mph 1026.1mb 45f 33f
11:00am  -   -   -  11 18 mph 1026.1mb 45f 33f
10:50am 2ft 4s 3s 11 18 mph 1026.1mb 45f 33f
10:40am 2ft  -  3s 9 13 mph 1026.1mb 45f 33f
10:30am  -   -   -  11 16 mph 1026.3mb - 33f
10:20am  -   -   -  11 16 mph 1026.2mb 45f 33f
10:10am  -   -   -  13 16 mph 1026.1mb 45f 33f
10:00am  -   -   -  13 18 mph 1026.1mb 45f 33f
9:50am 2.5ft 4s 3s 13 18 mph 1026mb 45f 33f
9:40am 2.5ft  -  3s 13 18 mph 1025.9mb 45f 33f
9:30am  -   -   -  13 20 mph 1025.8mb 45f 33f
9:20am  -   -   -  16 20 mph 1025.6mb 45f 33f
9:10am  -   -   -  13 18 mph 1025.6mb 45f 33f
9:00am  -   -   -  16 20 mph 1025.5mb 45f 33f
8:50am 2.5ft 4s 4s 16 20 mph 1025.5mb 45f 33f
8:40am  -   -   -  13 20 mph 1025.4mb 45f 33f
8:30am  -   -   -  16 20 mph 1025.4mb 45f 33f
8:20am  -   -   -  13 18 mph 1025.4mb 45f 33f
8:10am  -   -   -  16 22 mph 1025.3mb 45f 34f
8:00am  -   -   -  16 20 mph 1025.2mb 45f 34f
7:50am 2.5ft 4s 4s 13 18 mph 1025.1mb 45f 34f
7:40am 2.5ft  -  4s 16 20 mph 1024.8mb 45f 34f
7:30am  -   -   -  16 20 mph 1024.6mb 45f 34f
7:20am  -   -   -  13 20 mph 1024.6mb 45f 34f
7:10am  -   -   -  16 22 mph 1024.5mb 45f 34f
7:00am  -   -   -  18 22 mph 1024.6mb 45f 34f
6:50am 3ft 4s 4s 16 22 mph 1024.4mb 45f 34f
6:40am 3ft  -  4s 16 20 mph 1024.2mb - 34f
6:30am  -   -   -  16 22 mph 1024.1mb 45f 35f
6:20am  -   -   -  16 20 mph 1023.9mb 45f 35f
6:10am  -   -   -  16 22 mph 1023.8mb 45f 35f
6:00am  -   -   -  13 22 mph 1023.6mb 45f 35f
5:50am 4ft 5s 4s 18 25 mph 1023.4mb 45f 35f
5:40am  -   -   -  20 27 mph 1023.2mb 45f 35f
5:30am  -   -   -  22 27 mph 1022.9mb 45f 35f
5:20am  -   -   -  22 29 mph 1022.6mb 45f 36f
5:10am  -   -   -  22 29 mph 1022.2mb 45f 36f
5:00am  -   -   -  20 27 mph 1022.2mb 45f 36f
4:50am 3.5ft 5s 4s 20 27 mph 1022.1mb 45f 36f
4:40am 3.5ft  -  4s 20 25 mph 1021.9mb 45f 36f
4:30am  -   -   -  20 27 mph 1021.8mb 45f 36f
4:20am  -   -   -  20 25 mph 1021.6mb 45f 36f
4:10am  -   -   -  20 29 mph 1021.4mb 45f 36f
4:00am  -   -   -  20 27 mph 1021.2mb 45f 36f
3:50am 3.5ft 4s 4s 20 27 mph 1021mb 45f 36f
3:40am  -   -   -  22 27 mph 1020.8mb 45f 36f
3:30am  -   -   -  22 29 mph 1020.5mb 45f 37f
3:20am  -   -   -  20 25 mph 1020.4mb 45f 37f
3:10am  -   -   -  20 27 mph 1020.2mb 45f 37f
3:00am  -   -   -  20 25 mph 1020mb 45f 37f
2:50am 3.5ft 4s 4s 22 29 mph 1019.9mb 45f 37f
2:40am 3.5ft  -  4s 20 27 mph 1019.8mb 45f 37f
2:30am  -   -   -  20 25 mph 1019.8mb 45f 37f
2:20am  -   -   -  20 25 mph 1019.7mb 45f 37f
2:10am  -   -   -  18 22 mph 1019.6mb 45f 37f
2:00am  -   -   -  20 25 mph 1019.5mb 45f 37f
1:50am 2.5ft 4s 3s 20 25 mph 1019.3mb 45f 38f
12:50am 2.5ft 4s 3s 20 25 mph 1018.2mb 45f 38f
Tue 11/21 11:50pm 2.5ft 4s 4s 18 22 mph 1017.6mb 45f 40f
11:10pm  -   -   -  18 22 mph 1017.1mb 45f 40f
11:00pm  -   -   -  18 22 mph 1017mb 45f 41f
10:50pm 3ft 4s 4s 20 22 mph 1016.7mb 45f 41f
10:30pm  -   -   -  20 25 mph 1016.6mb 45f 41f
10:20pm  -   -   -  18 22 mph 1016.4mb 45f 41f
10:10pm  -   -   -  18 22 mph 1016.2mb 45f 41f
10:00pm  -   -   -  20 22 mph 1016.1mb 45f 41f
9:50pm 3.5ft 4s 4s 20 25 mph 1016.1mb 45f 41f
9:40pm 3.5ft  -  4s 18 22 mph 1015.9mb 45f 41f
9:30pm  -   -   -  18 22 mph 1015.8mb 45f 41f
9:20pm  -   -   -  18 20 mph 1015.5mb 46f 41f
9:10pm  -   -   -  20 22 mph 1015.4mb 46f 41f
9:00pm  -   -   -  20 25 mph 1015.3mb 46f 41f
8:50pm 3.5ft 5s 4s 22 29 mph 1015.2mb 46f 41f
8:40pm 3.5ft  -  4s 22 27 mph 1015.1mb 46f 41f
8:30pm  -   -   -  22 29 mph 1015mb 46f 41f
8:20pm  -   -   -  22 27 mph 1014.9mb 46f 41f
8:10pm  -   -   -  25 29 mph 1014.7mb 46f 41f
8:00pm  -   -   -  25 31 mph 1014.7mb 46f 41f
7:50pm 4ft 4s 4s 25 34 mph 1014.5mb 46f 42f
7:40pm 4ft  -  4s 27 34 mph 1014.4mb 46f 42f
7:30pm  -   -   -  29 36 mph 1014.4mb 46f 42f
7:20pm  -   -   -  29 36 mph 1014.2mb 46f 42f
7:10pm  -   -   -  29 38 mph 1013.9mb - 43f
7:00pm  -   -   -  29 36 mph 1013.7mb 46f 43f
6:50pm 3ft 4s 4s 27 34 mph 1013.6mb 46f 44f
6:40pm 3ft  -  4s 27 31 mph 1013.5mb 46f 44f
6:30pm  -   -   -  25 31 mph 1013.4mb 46f 44f
6:20pm  -   -   -  27 34 mph 1013.2mb 46f 45f
6:10pm  -   -   -  25 31 mph 1013mb 46f 46f
6:00pm  -   -   -  22 31 mph 1012.9mb 46f 47f
5:50pm 2.5ft 4s 3s 18 22 mph 1012.6mb 46f 47f
5:40pm 2.5ft  -  3s 20 25 mph 1012.5mb 46f 47f
5:20pm  -   -   -  18 22 mph 1012.6mb 46f 48f
5:10pm  -   -   -  18 22 mph 1012.5mb 46f 48f
5:00pm  -   -   -  18 22 mph 1012.4mb 46f 48f
4:50pm 2ft 4s 3s 16 22 mph 1012.2mb 46f 48f
4:40pm  -   -   -  16 20 mph 1012.1mb 46f 48f
4:30pm  -   -   -  16 20 mph 1012.1mb 46f 48f
4:20pm  -   -   -  18 22 mph 1012mb 46f 48f
4:10pm  -   -   -  18 22 mph 1011.9mb 46f 48f
4:00pm  -   -   -  16 18 mph 1011.8mb 46f 48f
3:50pm 2.5ft 4s 3s 16 18 mph 1011.6mb 46f 48f
3:40pm 2.5ft  -  3s 16 20 mph 1011.5mb 46f 48f
3:30pm  -   -   -  18 22 mph 1011.2mb 46f 49f
3:20pm  -   -   -  18 22 mph 1011mb 46f 49f
3:10pm  -   -   -  16 20 mph 1010.9mb 46f 48f
3:00pm  -   -   -  16 20 mph 1010.6mb 46f 48f
2:50pm 3ft 4s 4s 16 18 mph 1010.5mb 46f 48f
2:40pm 3ft  -  4s 18 20 mph 1010.1mb 46f 49f
2:30pm  -   -   -  20 25 mph 1010mb 46f 49f
2:20pm  -   -   -  20 25 mph 1010.2mb 46f 49f
2:10pm  -   -   -  20 25 mph 1010.1mb 46f 49f
2:00pm  -   -   -  20 27 mph 1010.1mb 46f 49f
1:50pm 3.5ft 4s 4s 20 22 mph 1010.2mb 46f 49f
1:40pm 3.5ft  -  4s 20 22 mph 1010.1mb 46f 48f
1:30pm  -   -   -  20 27 mph 1010mb 46f 49f
1:20pm  -   -   -  22 27 mph 1009.8mb 46f 49f
1:10pm  -   -   -  20 27 mph 1009.6mb 46f 48f
1:00pm  -   -   -  18 25 mph 1009.7mb 46f 48f
12:50pm 3.5ft  -  4s 18 22 mph 1009.4mb 46f 48f
12:40pm 3.5ft  -  4s 18 22 mph 1009.4mb 46f 48f
12:30pm  -   -   -  18 22 mph 1009.5mb 46f 48f
12:20pm  -   -   -  20 25 mph 1009.4mb 46f 48f
12:10pm  -   -   -  22 27 mph 1009.3mb 46f 48f
12:00pm  -   -   -  22 27 mph 1009.1mb 46f 48f
11:50am 4.5ft 5s 4s 22 27 mph 1009mb 46f 48f
11:40am 4.5ft  -  4s 25 31 mph 1009.1mb 46f 47f
11:30am  -   -   -  25 29 mph 1009mb 46f 47f
11:20am  -   -   -  25 29 mph 1009mb 46f 47f
11:10am  -   -   -  25 31 mph 1009.1mb 46f 47f
11:00am  -   -   -  25 29 mph 1009.2mb - 47f
10:50am 4.5ft 5s 4s 25 31 mph 1009.3mb 46f 47f
10:40am  -   -   -  27 31 mph 1009.2mb 46f 46f
10:30am  -   -   -  27 31 mph 1009.3mb 46f 46f
10:20am  -   -   -  27 34 mph 1009.5mb 46f 46f
10:10am  -   -   -  27 31 mph 1009.5mb 46f 46f
10:00am  -   -   -  27 34 mph 1009.5mb 46f 45f
9:50am 4.5ft 5s 4s 27 36 mph 1009.4mb 46f 45f
9:40am 4.5ft  -  4s 27 34 mph 1009.2mb 46f 45f
9:30am  -   -   -  27 34 mph 1009.3mb 46f 44f
9:20am  -   -   -  29 36 mph 1009.3mb 46f 44f
9:10am  -   -   -  29 36 mph 1009.4mb 46f 44f
9:00am  -   -   -  29 36 mph 1009.2mb 46f 44f
8:50am 4.5ft 5s 4s 29 38 mph 1009.1mb 46f 44f
8:40am  -   -   -  29 38 mph 1009.1mb 46f 44f
8:30am  -   -   -  29 36 mph 1009.1mb 46f 44f
8:20am  -   -   -  29 38 mph 1009.3mb 46f 44f
8:10am  -   -   -  29 36 mph 1009.4mb 46f 44f
8:00am  -   -   -  29 36 mph 1009.4mb 46f 44f
7:50am 4.5ft 5s 4s 29 36 mph 1009.5mb 46f 44f
7:40am  -   -   -  29 36 mph 1009.5mb 46f 44f
7:30am  -   -   -  29 36 mph 1009.4mb 46f 44f
7:20am  -   -   -  29 36 mph 1009.6mb 46f 44f
7:10am  -   -   -  27 34 mph 1009.5mb 45f 44f
7:00am  -   -   -  27 34 mph 1009.5mb 45f 44f
6:50am 4.5ft 5s 4s 27 38 mph 1009.3mb 45f 44f
6:40am  -   -   -  29 36 mph 1009.3mb 45f 44f
6:30am  -   -   -  29 36 mph 1009.2mb 45f 44f
6:20am  -   -   -  29 36 mph 1008.9mb 45f 44f
6:10am  -   -   -  31 38 mph 1008.9mb 45f 44f
6:00am  -   -   -  29 34 mph 1009mb 45f 44f
5:50am 4.5ft 5s 4s 27 34 mph 1009mb 45f 44f
5:40am 4.5ft  -  4s 29 36 mph 1009.1mb 45f 44f
5:30am  -   -   -  29 36 mph 1009.2mb 45f 44f
5:20am  -   -   -  29 36 mph 1009.3mb 45f 44f
5:10am  -   -   -  27 36 mph 1009.3mb 45f 44f
5:00am  -   -   -  29 36 mph 1009.4mb 45f 44f
4:50am 4ft 5s 4s 27 34 mph 1009.4mb 45f 44f
4:40am 4ft  -  4s 27 36 mph 1009.5mb 45f 44f
4:30am  -   -   -  29 36 mph 1009.6mb 45f 44f
4:20am  -   -   -  27 36 mph 1009.7mb 45f 44f
4:10am  -   -   -  29 34 mph 1009.7mb 45f 44f
4:00am  -   -   -  29 36 mph 1009.8mb 45f 44f
3:50am 4.5ft 5s 4s 27 36 mph 1010mb 45f 44f
3:40am  -   -   -  27 34 mph 1010mb 45f 44f
3:30am  -   -   -  27 34 mph 1010.2mb 45f 44f
3:20am  -   -   -  27 31 mph 1010.2mb 45f 44f
3:10am  -   -   -  27 34 mph 1010.2mb 45f 45f
3:00am  -   -   -  27 36 mph 1010.4mb 45f 45f
2:50am 4ft 5s 4s 27 34 mph 1010.4mb 45f 45f
2:40am 4ft  -  4s 27 31 mph 1010.5mb 45f 45f
2:30am  -   -   -  27 36 mph 1010.6mb 45f 45f
2:20am  -   -   -  29 36 mph 1010.6mb 45f 45f
2:10am  -   -   -  27 34 mph 1010.7mb 45f 45f
2:00am  -   -   -  27 34 mph 1010.7mb 45f 45f
1:50am 4.5ft 5s 4s 29 36 mph 1010.8mb 45f 44f
1:40am  -   -   -  29 36 mph 1010.8mb 45f 44f
1:30am  -   -   -  29 36 mph 1010.8mb 45f 44f
1:20am  -   -   -  27 34 mph 1010.9mb 45f 44f
1:10am  -   -   -  29 34 mph 1011mb 45f 44f
1:00am  -   -   -  27 34 mph 1011.1mb 45f 44f
12:50am 4.5ft 5s 4s 27 36 mph 1011.4mb 45f 44f
12:40am  -   -   -  27 34 mph 1011.5mb 45f 44f
12:30am  -   -   -  25 31 mph 1011.7mb 45f 44f
12:20am  -   -   -  27 31 mph 1011.8mb 45f 44f
12:10am  -   -   -  27 34 mph 1012mb 45f 44f
12:00am  -   -   -  27 34 mph 1012.1mb 45f 44f
Mon 11/20 11:50pm 4.5ft 5s 4s 27 36 mph 1012.1mb 45f 45f
11:40pm 4.5ft  -  4s 29 36 mph 1012.1mb 45f 45f
11:30pm  -   -   -  29 38 mph 1012.1mb 45f 45f
11:20pm  -   -   -  29 36 mph 1012mb 45f 45f
11:10pm  -   -   -  29 38 mph 1011.8mb 45f 45f
11:00pm  -   -   -  27 34 mph 1011.7mb 45f 45f
10:50pm 4.5ft 5s 4s 29 36 mph 1011.6mb 45f 45f
10:40pm  -   -   -  29 36 mph 1011.7mb 45f 45f
10:30pm  -   -   -  25 31 mph 1012mb 45f 46f
10:20pm  -   -   -  27 34 mph 1012mb 45f 46f
10:10pm  -   -   -  27 34 mph 1012mb 45f 46f
10:00pm  -   -   -  27 36 mph 1012.1mb 45f 46f
9:50pm 4.5ft 5s 4s 27 34 mph 1012.1mb 45f 46f
9:40pm  -   -   -  27 36 mph 1012.3mb 45f 46f
9:30pm  -   -   -  27 38 mph 1012.3mb 45f 46f
9:20pm  -   -   -  27 36 mph 1012.5mb 45f 45f
9:10pm  -   -   -  29 38 mph 1012.5mb 45f 45f
9:00pm  -   -   -  27 38 mph 1012.6mb 45f 45f
8:50pm 4.5ft 5s 4s 27 34 mph 1012.8mb 45f 45f
8:40pm  -   -   -  29 36 mph 1013mb 45f 45f
8:30pm  -   -   -  27 34 mph 1013.1mb 45f 45f
8:20pm  -   -   -  27 34 mph 1013.3mb 45f 45f
8:10pm  -   -   -  27 38 mph 1013.6mb 45f 45f
8:00pm  -   -   -  27 36 mph 1013.7mb 45f 45f
7:50pm 4.5ft 5s 4s 29 36 mph 1013.9mb 45f 44f
7:40pm 4.5ft  -  4s 27 34 mph 1013.6mb 45f 45f
7:30pm  -   -   -  27 34 mph 1013.6mb 45f 45f
7:20pm  -   -   -  27 34 mph 1013.7mb 45f 45f
7:10pm  -   -   -  27 34 mph 1013.8mb 45f 45f
7:00pm  -   -   -  27 34 mph 1013.8mb 45f 44f
6:50pm 4.5ft 5s 4s 29 36 mph 1013.8mb 45f 44f
6:40pm 4.5ft  -  4s 29 36 mph 1013.9mb 45f 44f
6:30pm  -   -   -  29 36 mph 1013.8mb 45f 44f
6:20pm  -   -   -  31 38 mph 1013.9mb 45f 44f
6:10pm  -   -   -  29 36 mph 1014mb 45f 45f
6:00pm  -   -   -  29 38 mph 1014.1mb 45f 45f
5:50pm 4ft 5s 4s 29 40 mph 1014.1mb 45f 44f
5:40pm  -   -   -  29 38 mph 1014.1mb 45f 45f
5:20pm  -   -   -  27 34 mph 1014.2mb 45f 45f
5:10pm  -   -   -  27 34 mph 1014.2mb 45f 45f
5:00pm  -   -   -  27 34 mph 1014.3mb 45f 45f
4:50pm 4ft 5s 4s 27 34 mph 1014.3mb 45f 45f
4:40pm 4ft  -  4s 27 31 mph 1014.4mb 45f 45f
4:30pm  -   -   -  25 31 mph 1014.5mb 45f 45f
4:20pm  -   -   -  25 31 mph 1014.6mb 45f 45f
4:10pm  -   -   -  25 31 mph 1014.6mb 45f 45f
4:00pm  -   -   -  27 36 mph 1014.6mb 45f 45f
3:50pm 4.5ft 5s 4s 29 36 mph 1014.6mb 45f 45f
3:40pm 4.5ft  -  4s 29 34 mph 1014.6mb 45f 45f
3:30pm  -   -   -  29 36 mph 1014.6mb 45f 45f
3:20pm  -   -   -  27 36 mph 1014.7mb 45f 45f
3:10pm  -   -   -  29 38 mph 1014.7mb 45f 45f
3:00pm  -   -   -  29 38 mph 1014.7mb 45f 45f
2:50pm 4ft 5s 4s 29 38 mph 1014.7mb 45f 44f
2:40pm  -   -   -  29 36 mph 1014.7mb 45f 44f
2:30pm  -   -   -  29 36 mph 1014.7mb 45f 44f
2:20pm  -   -   -  27 36 mph 1014.7mb 45f 44f
2:10pm  -   -   -  27 34 mph 1014.8mb 45f 44f
2:00pm  -   -   -  29 36 mph 1014.8mb 45f 44f
1:50pm 4ft 5s 4s 29 34 mph 1015mb 45f 44f
1:40pm 4ft  -  4s 27 34 mph 1015.1mb 45f 44f
1:30pm  -   -   -  27 34 mph 1015.4mb 45f 43f
1:20pm  -   -   -  27 34 mph 1015.5mb 45f 43f
1:10pm  -   -   -  27 34 mph 1015.6mb 45f 43f
1:00pm  -   -   -  27 31 mph 1015.7mb 45f 43f
12:50pm 4ft 5s 4s 27 31 mph 1015.9mb 45f 43f
12:40pm 4ft  -  4s 27 31 mph 1016mb 45f 42f
12:30pm  -   -   -  27 34 mph 1016.1mb 45f 42f
12:20pm  -   -   -  27 34 mph 1016.3mb 45f 42f
12:10pm  -   -   -  29 34 mph 1016.5mb 45f 42f
12:00pm  -   -   -  27 34 mph 1016.6mb 45f 41f
11:50am 4ft 5s 4s 27 34 mph 1016.8mb 45f 41f
11:40am 4ft  -  4s 27 34 mph 1017mb 45f 41f
11:30am  -   -   -  27 31 mph 1017.3mb 45f 40f
11:20am  -   -   -  25 31 mph 1017.5mb 45f 40f
11:10am  -   -   -  27 31 mph 1017.7mb 45f 40f
11:00am  -   -   -  25 31 mph 1017.8mb 45f 40f
10:50am 4.5ft 5s 4s 25 31 mph 1018mb 45f 39f
10:40am 4.5ft  -  4s 25 31 mph 1018.2mb 45f 39f
10:30am  -   -   -  25 31 mph 1018.5mb 45f 39f
10:20am  -   -   -  25 29 mph 1018.8mb 45f 39f
10:10am  -   -   -  25 29 mph 1018.9mb 45f 38f
10:00am  -   -   -  25 31 mph 1019.2mb 45f 38f
9:50am 4ft 4s 4s 25 29 mph 1019.2mb 45f 38f
9:40am 4ft  -  4s 25 29 mph 1019.2mb 45f 38f
9:30am  -   -   -  25 29 mph 1019.3mb 45f 37f
9:20am  -   -   -  25 31 mph 1019.5mb 45f 37f
9:10am  -   -   -  25 29 mph 1019.5mb 45f 37f
9:00am  -   -   -  25 29 mph 1019.6mb 45f 37f
8:50am 3.5ft 4s 4s 22 29 mph 1019.8mb 45f 36f
8:40am  -   -   -  22 27 mph 1019.7mb 45f 36f
8:30am  -   -   -  22 29 mph 1019.6mb 45f 36f
8:20am  -   -   -  25 29 mph 1019.6mb 45f 36f
8:10am  -   -   -  22 27 mph 1019.6mb 45f 36f
8:00am  -   -   -  22 29 mph 1019.8mb 45f 36f
7:50am 3ft 4s 4s 22 29 mph 1019.8mb 45f 35f
7:40am 3ft  -  4s 22 29 mph 1020mb 45f 35f
7:30am  -   -   -  22 29 mph 1019.9mb 45f 35f
7:20am  -   -   -  22 27 mph 1019.9mb 45f 35f
7:10am  -   -   -  22 29 mph 1020mb 45f 35f
7:00am  -   -   -  22 27 mph 1020.1mb 45f 35f
6:50am 3.5ft 4s 4s 22 27 mph 1020.1mb 45f 35f
6:40am  -   -   -  22 27 mph 1020mb 45f 35f
6:30am  -   -   -  22 29 mph 1019.8mb 45f 35f
6:20am  -   -   -  22 29 mph 1019.8mb 45f 35f
6:10am  -   -   -  22 27 mph 1019.7mb 45f 35f
6:00am  -   -   -  22 27 mph 1019.7mb 45f 35f
5:50am 3.5ft 4s 4s 22 29 mph 1019.6mb 45f 35f
5:40am 3.5ft  -  4s 22 29 mph 1019.6mb 45f 35f
5:30am  -   -   -  25 29 mph 1019.7mb 45f 35f
5:20am  -   -   -  22 31 mph 1019.5mb 45f 35f
5:10am  -   -   -  22 29 mph 1019.3mb 45f 35f
5:00am  -   -   -  22 27 mph 1019.4mb 45f 35f
4:50am 3.5ft 4s 4s 22 29 mph 1019.3mb 45f 35f
4:40am  -   -   -  22 29 mph 1019.4mb 45f 35f
4:30am  -   -   -  22 27 mph 1019.3mb 45f 35f
4:20am  -   -   -  22 27 mph 1019.3mb 45f 35f
4:10am  -   -   -  22 27 mph 1019.2mb 45f 35f
4:00am  -   -   -  20 27 mph 1019.1mb 45f 35f
3:50am 3.5ft 4s 4s 20 25 mph 1019.3mb - 35f
3:40am 3.5ft  -  4s 20 27 mph 1019.1mb 45f 35f
3:30am  -   -   -  20 27 mph 1019mb 45f 35f
3:20am  -   -   -  22 27 mph 1019mb 45f 35f
3:10am  -   -   -  20 27 mph 1019mb 45f 35f
3:00am  -   -   -  20 27 mph 1018.9mb 45f 35f
2:50am 3.5ft 4s 4s 20 27 mph 1018.9mb 45f 35f
2:40am 3.5ft  -  4s 20 27 mph 1019mb 45f 35f
2:30am  -   -   -  20 25 mph 1019mb 45f 35f
2:20am  -   -   -  20 27 mph 1018.9mb 45f 35f
2:10am  -   -   -  20 25 mph 1019mb 45f 35f
2:00am  -   -   -  20 25 mph 1019mb 45f 35f
1:50am 3.5ft 4s 4s 22 27 mph 1018.8mb 45f 35f
1:40am 3.5ft  -  4s 22 27 mph 1018.8mb 45f 35f
1:30am  -   -   -  22 27 mph 1018.7mb 45f 35f
1:20am  -   -   -  20 27 mph 1018.5mb 45f 35f
1:10am  -   -   -  20 27 mph 1018.5mb 45f 35f
1:00am  -   -   -  22 29 mph 1018.5mb 45f 35f
12:50am 3.5ft 4s 4s 22 27 mph 1018.3mb 45f 35f
12:40am 3.5ft  -  4s 22 27 mph 1018.3mb 45f 35f
12:30am  -   -   -  22 29 mph 1018.3mb 45f 36f
12:20am  -   -   -  22 29 mph 1018.3mb 45f 36f
12:10am  -   -   -  22 27 mph 1018.2mb 45f 36f
12:00am  -   -   -  22 29 mph 1018.2mb 45f 36f
Sun 11/19 11:50pm 3.5ft 4s 4s 22 29 mph 1018.1mb 45f 36f
11:40pm 3.5ft  -  4s 22 29 mph 1018.3mb 45f 36f
11:30pm  -   -   -  22 29 mph 1018.1mb 45f 36f
11:20pm  -   -   -  22 29 mph 1018mb 45f 36f
11:10pm  -   -   -  22 29 mph 1018mb 45f 36f
11:00pm  -   -   -  22 29 mph 1017.9mb 45f 36f
10:50pm 4.5ft 5s 4s 25 29 mph 1017.8mb 45f 36f
10:40pm  -   -   -  22 31 mph 1017.7mb 45f 36f
10:30pm  -   -   -  25 34 mph 1017.6mb 45f 36f
10:20pm  -   -   -  25 31 mph 1017.6mb 45f 36f
10:10pm  -   -   -  25 29 mph 1017.7mb 45f 36f
10:00pm  -   -   -  27 34 mph 1017.6mb 45f 35f
9:50pm 4.5ft 5s 4s 25 34 mph 1017.6mb 45f 35f
9:40pm 4.5ft  -  4s 27 31 mph 1017.9mb 46f 36f
9:30pm  -   -   -  27 40 mph 1017.7mb 46f 35f
9:20pm  -   -   -  27 31 mph 1017.5mb 46f 36f
9:10pm  -   -   -  27 36 mph 1017.3mb 46f 36f
9:00pm  -   -   -  27 34 mph 1017mb 46f 36f
8:50pm 4.5ft 5s 4s 27 34 mph 1016.8mb 46f 36f
8:40pm 4.5ft  -  4s 27 34 mph 1016.7mb 46f 36f
8:30pm  -   -   -  25 36 mph 1016.6mb 46f 36f
8:20pm  -   -   -  25 31 mph 1016.5mb 46f 36f
8:10pm  -   -   -  25 29 mph 1016.5mb - 36f
8:00pm  -   -   -  25 31 mph 1016.2mb 46f 36f
7:50pm 4.5ft 5s 4s 22 34 mph 1016.2mb 46f 36f
7:40pm  -   -   -  22 29 mph 1016.3mb 46f 36f
7:30pm  -   -   -  25 31 mph 1016.2mb 46f 36f
7:20pm  -   -   -  27 34 mph 1016.1mb 46f 36f
7:10pm  -   -   -  29 36 mph 1016mb 46f 36f
7:00pm  -   -   -  27 34 mph 1015.9mb 46f 36f
6:50pm 5ft 5s 4s 27 36 mph 1015.7mb 46f 36f
6:40pm 5ft  -  4s 27 34 mph 1015.6mb 46f 36f
6:30pm  -   -   -  27 34 mph 1015.7mb 46f 36f
6:20pm  -   -   -  27 36 mph 1015.5mb 46f 37f
6:10pm  -   -   -  25 31 mph 1015.4mb 46f 37f
6:00pm  -   -   -  25 31 mph 1015.4mb 46f 37f
5:50pm 5ft 5s 4s 27 31 mph 1015.2mb 46f 37f
5:40pm  -   -   -  27 34 mph 1015.1mb 46f 37f
5:20pm  -   -   -  29 36 mph 1014.8mb 46f 37f
5:10pm  -   -   -  29 38 mph 1014.6mb 46f 37f
5:00pm  -   -   -  29 38 mph 1014.4mb 47f 37f
4:50pm 4.5ft 5s 4s 29 38 mph 1014.2mb 47f 37f
4:40pm  -   -   -  29 36 mph 1014.1mb 47f 37f
4:30pm  -   -   -  27 36 mph 1014mb 47f 38f
4:20pm  -   -   -  29 36 mph 1014mb 47f 37f
4:10pm  -   -   -  27 36 mph 1013.8mb 47f 37f
4:00pm  -   -   -  27 34 mph 1013.8mb 47f 37f
3:50pm 5ft 5s 4s 29 36 mph 1013.7mb 47f 37f
3:40pm 5ft  -  4s 31 38 mph 1013.6mb 47f 38f
3:30pm  -   -   -  29 36 mph 1013.4mb 47f 37f
3:20pm  -   -   -  31 40 mph 1013.3mb 47f 38f
3:10pm  -   -   -  27 34 mph 1013.2mb 47f 38f
3:00pm  -   -   -  29 36 mph 1013mb 47f 38f
2:50pm 4.5ft 5s 4s 29 36 mph 1012.8mb 47f 38f
2:40pm 4.5ft  -  4s 29 38 mph 1012.7mb 47f 38f
2:30pm  -   -   -  29 36 mph 1012.5mb 47f 38f
2:20pm  -   -   -  27 36 mph 1012.4mb 47f 38f
2:10pm  -   -   -  27 34 mph 1012.3mb 47f 38f
2:00pm  -   -   -  29 36 mph 1012.1mb 47f 38f
1:50pm 4.5ft 5s 4s 27 34 mph 1012mb 47f 39f
1:40pm 4.5ft  -  4s 29 36 mph 1011.8mb 47f 39f
1:30pm  -   -   -  29 34 mph 1011.7mb 47f 39f
1:20pm  -   -   -  27 36 mph 1011.6mb 47f 39f
1:10pm  -   -   -  29 36 mph 1011.5mb 47f 39f
1:00pm  -   -   -  27 38 mph 1011.4mb 47f 39f
12:50pm 4ft 4s 4s 25 31 mph 1011.3mb 47f 39f
12:40pm 4ft  -  4s 25 31 mph 1011.3mb 47f 39f
12:30pm  -   -   -  27 34 mph 1011.3mb 47f 39f
12:20pm  -   -   -  27 34 mph 1011.3mb 47f 39f
12:10pm  -   -   -  25 34 mph 1011.2mb 47f 39f
12:00pm  -   -   -  25 31 mph 1011.1mb 47f 39f
11:50am 4ft 5s 4s 29 34 mph 1011.2mb 47f 40f
11:40am 4ft  -  4s 27 34 mph 1011.1mb 47f 40f
11:30am  -   -   -  27 31 mph 1011.2mb 47f 40f
11:20am  -   -   -  25 31 mph 1011.2mb 47f 40f
11:10am  -   -   -  27 31 mph 1011.3mb 47f 40f
11:00am  -   -   -  25 29 mph 1011.4mb 47f 40f
10:50am 3.5ft 4s 4s 25 31 mph 1011.4mb 47f 40f
10:40am  -   -   -  27 34 mph 1011.4mb 47f 40f
10:30am  -   -   -  25 31 mph 1011.5mb 47f 40f